sensor_id;sensor_type;location;lat;lon;timestamp;pressure;altitude;pressure_sealevel;temperature;humidity
51178;BME280;37243;49.814;8.652;2022-12-24T00:01:34;99583.97;;;27.33;33.84
51178;BME280;37243;49.814;8.652;2022-12-24T00:04:02;99575.00;;;27.36;34.48
51178;BME280;37243;49.814;8.652;2022-12-24T00:06:31;99575.44;;;27.38;33.78
51178;BME280;37243;49.814;8.652;2022-12-24T00:08:59;99576.66;;;27.40;33.98
51178;BME280;37243;49.814;8.652;2022-12-24T00:11:27;99597.59;;;27.41;34.12
51178;BME280;37243;49.814;8.652;2022-12-24T00:13:55;99591.38;;;27.44;33.51
51178;BME280;37243;49.814;8.652;2022-12-24T00:16:24;99586.31;;;27.46;33.75
51178;BME280;37243;49.814;8.652;2022-12-24T00:18:55;99591.44;;;27.48;33.57
51178;BME280;37243;49.814;8.652;2022-12-24T00:21:23;99597.44;;;27.50;33.77
51178;BME280;37243;49.814;8.652;2022-12-24T00:23:51;99599.00;;;27.51;33.37
51178;BME280;37243;49.814;8.652;2022-12-24T00:26:20;99595.91;;;27.52;34.01
51178;BME280;37243;49.814;8.652;2022-12-24T00:28:48;99607.38;;;27.54;34.05
51178;BME280;37243;49.814;8.652;2022-12-24T00:31:17;99610.94;;;27.55;34.03
51178;BME280;37243;49.814;8.652;2022-12-24T00:33:46;99605.06;;;27.56;33.52
51178;BME280;37243;49.814;8.652;2022-12-24T00:36:18;99609.41;;;27.57;33.80
51178;BME280;37243;49.814;8.652;2022-12-24T00:38:46;99622.06;;;27.58;33.26
51178;BME280;37243;49.814;8.652;2022-12-24T00:41:15;99619.31;;;27.58;33.53
51178;BME280;37243;49.814;8.652;2022-12-24T00:43:54;99623.63;;;27.59;33.44
51178;BME280;37243;49.814;8.652;2022-12-24T00:46:23;99624.44;;;27.60;33.52
51178;BME280;37243;49.814;8.652;2022-12-24T00:48:52;99622.50;;;27.60;33.25
51178;BME280;37243;49.814;8.652;2022-12-24T00:51:23;99625.69;;;27.63;33.07
51178;BME280;37243;49.814;8.652;2022-12-24T00:53:52;99628.44;;;27.63;33.72
51178;BME280;37243;49.814;8.652;2022-12-24T00:56:20;99628.44;;;27.63;33.04
51178;BME280;37243;49.814;8.652;2022-12-24T00:58:49;99625.69;;;27.63;33.38
51178;BME280;37243;49.814;8.652;2022-12-24T01:01:17;99625.69;;;27.63;33.04
51178;BME280;37243;49.814;8.652;2022-12-24T01:03:46;99632.81;;;27.64;33.42
51178;BME280;37243;49.814;8.652;2022-12-24T01:06:17;99630.84;;;27.64;33.62
51178;BME280;37243;49.814;8.652;2022-12-24T01:08:48;99638.75;;;27.66;33.00
51178;BME280;37243;49.814;8.652;2022-12-24T01:11:17;99632.44;;;27.65;33.69
51178;BME280;37243;49.814;8.652;2022-12-24T01:13:46;99644.25;;;27.66;33.11
51178;BME280;37243;49.814;8.652;2022-12-24T01:16:16;99643.13;;;27.67;33.02
51178;BME280;37243;49.814;8.652;2022-12-24T01:18:45;99640.38;;;27.67;33.50
51178;BME280;37243;49.814;8.652;2022-12-24T01:21:14;99647.03;;;27.66;32.99
51178;BME280;37243;49.814;8.652;2022-12-24T01:23:47;99654.16;;;27.67;33.69
51178;BME280;37243;49.814;8.652;2022-12-24T01:26:15;99656.09;;;27.66;33.25
51178;BME280;37243;49.814;8.652;2022-12-24T01:28:43;99659.28;;;27.68;33.38
51178;BME280;37243;49.814;8.652;2022-12-24T01:31:13;99667.94;;;27.67;33.37
51178;BME280;37243;49.814;8.652;2022-12-24T01:33:43;99671.13;;;27.69;33.21
51178;BME280;37243;49.814;8.652;2022-12-24T01:36:12;99670.31;;;27.68;33.09
51178;BME280;37243;49.814;8.652;2022-12-24T01:38:41;99668.38;;;27.69;33.06
51178;BME280;37243;49.814;8.652;2022-12-24T01:41:16;99668.38;;;27.69;33.47
51178;BME280;37243;49.814;8.652;2022-12-24T01:43:57;99681.34;;;27.68;33.18
51178;BME280;37243;49.814;8.652;2022-12-24T01:46:28;99683.75;;;27.70;33.38
51178;BME280;37243;49.814;8.652;2022-12-24T01:49:00;99688.47;;;27.69;32.91
51178;BME280;37243;49.814;8.652;2022-12-24T01:51:33;99689.25;;;27.70;33.21
51178;BME280;37243;49.814;8.652;2022-12-24T01:54:05;99688.47;;;27.69;33.15
51178;BME280;37243;49.814;8.652;2022-12-24T01:56:41;99687.66;;;27.69;32.73
51178;BME280;37243;49.814;8.652;2022-12-24T01:59:14;99705.81;;;27.70;33.09
51178;BME280;37243;49.814;8.652;2022-12-24T02:01:44;99705.81;;;27.70;32.75
51178;BME280;37243;49.814;8.652;2022-12-24T02:04:16;99707.38;;;27.71;32.78
51178;BME280;37243;49.814;8.652;2022-12-24T02:06:48;99711.31;;;27.70;33.35
51178;BME280;37243;49.814;8.652;2022-12-24T02:09:17;99716.81;;;27.70;33.42
51178;BME280;37243;49.814;8.652;2022-12-24T02:11:48;99718.41;;;27.71;32.74
51178;BME280;37243;49.814;8.652;2022-12-24T02:14:16;99725.91;;;27.70;32.95
51178;BME280;37243;49.814;8.652;2022-12-24T02:16:50;99738.88;;;27.70;33.15
51178;BME280;37243;49.814;8.652;2022-12-24T02:19:58;99734.16;;;27.70;32.69
51178;BME280;37243;49.814;8.652;2022-12-24T02:22:38;99734.94;;;27.71;33.46
51178;BME280;37243;49.814;8.652;2022-12-24T02:25:24;99740.47;;;27.71;32.67
51178;BME280;37243;49.814;8.652;2022-12-24T02:28:10;99740.47;;;27.71;33.00
51178;BME280;37243;49.814;8.652;2022-12-24T02:30:47;99753.09;;;27.72;32.89
51178;BME280;37243;49.814;8.652;2022-12-24T02:33:26;99748.72;;;27.71;33.04
51178;BME280;37243;49.814;8.652;2022-12-24T02:36:01;99744.81;;;27.72;33.08
51178;BME280;37243;49.814;8.652;2022-12-24T02:38:34;99751.47;;;27.71;32.83
51178;BME280;37243;49.814;8.652;2022-12-24T02:41:07;99755.84;;;27.72;32.97
51178;BME280;37243;49.814;8.652;2022-12-24T02:43:38;99753.91;;;27.72;32.62
51178;BME280;37243;49.814;8.652;2022-12-24T02:46:14;99751.47;;;27.71;32.68
51178;BME280;37243;49.814;8.652;2022-12-24T02:48:46;99752.28;;;27.71;33.33
51178;BME280;37243;49.814;8.652;2022-12-24T02:51:15;99748.72;;;27.71;32.96
51178;BME280;37243;49.814;8.652;2022-12-24T02:53:43;99762.50;;;27.71;32.86
51178;BME280;37243;49.814;8.652;2022-12-24T02:56:42;99768.00;;;27.71;33.30
51178;BME280;37243;49.814;8.652;2022-12-24T02:59:32;99772.75;;;27.70;32.61
51178;BME280;37243;49.814;8.652;2022-12-24T03:02:09;99772.38;;;27.72;32.64
51178;BME280;37243;49.814;8.652;2022-12-24T03:04:51;99766.06;;;27.71;33.07
51178;BME280;37243;49.814;8.652;2022-12-24T03:07:27;99777.91;;;27.72;33.00
51178;BME280;37243;49.814;8.652;2022-12-24T03:10:05;99775.94;;;27.72;32.97
51178;BME280;37243;49.814;8.652;2022-12-24T03:12:38;99775.94;;;27.72;32.87
51178;BME280;37243;49.814;8.652;2022-12-24T03:15:10;99782.25;;;27.73;32.54
51178;BME280;37243;49.814;8.652;2022-12-24T03:17:44;99783.84;;;27.74;32.94
51178;BME280;37243;49.814;8.652;2022-12-24T03:20:21;99789.38;;;27.74;32.89
51178;BME280;37243;49.814;8.652;2022-12-24T03:22:50;99789.38;;;27.74;32.83
51178;BME280;37243;49.814;8.652;2022-12-24T03:25:19;99794.88;;;27.74;32.85
51178;BME280;37243;49.814;8.652;2022-12-24T03:27:51;99789.84;;;27.76;32.73
51178;BME280;37243;49.814;8.652;2022-12-24T03:30:20;99785.13;;;27.76;32.76
51178;BME280;37243;49.814;8.652;2022-12-24T03:32:51;99794.19;;;27.77;32.84
51178;BME280;37243;49.814;8.652;2022-12-24T03:35:20;99794.97;;;27.77;33.05
51178;BME280;37243;49.814;8.652;2022-12-24T03:37:49;99803.72;;;27.79;32.69
51178;BME280;37243;49.814;8.652;2022-12-24T03:40:17;99801.75;;;27.80;32.44
51178;BME280;37243;49.814;8.652;2022-12-24T03:42:46;99808.88;;;27.81;32.90
51178;BME280;37243;49.814;8.652;2022-12-24T03:45:14;99803.34;;;27.81;32.70
51178;BME280;37243;49.814;8.652;2022-12-24T03:47:44;99795.91;;;27.81;32.58
51178;BME280;37243;49.814;8.652;2022-12-24T03:50:15;99806.13;;;27.81;32.37
51178;BME280;37243;49.814;8.652;2022-12-24T03:52:44;99806.94;;;27.81;32.44
51178;BME280;37243;49.814;8.652;2022-12-24T03:55:12;99801.03;;;27.83;32.48
51178;BME280;37243;49.814;8.652;2022-12-24T03:57:40;99803.81;;;27.83;32.73
51178;BME280;37243;49.814;8.652;2022-12-24T04:00:10;99807.38;;;27.83;32.28
51178;BME280;37243;49.814;8.652;2022-12-24T04:02:38;99804.59;;;27.83;32.62
51178;BME280;37243;49.814;8.652;2022-12-24T04:05:10;99804.28;;;27.85;32.65
51178;BME280;37243;49.814;8.652;2022-12-24T04:07:43;99805.41;;;27.84;32.71
51178;BME280;37243;49.814;8.652;2022-12-24T04:10:12;99810.94;;;27.84;32.38
51178;BME280;37243;49.814;8.652;2022-12-24T04:12:41;99800.72;;;27.84;32.71
51178;BME280;37243;49.814;8.652;2022-12-24T04:15:10;99810.56;;;27.85;32.44
51178;BME280;37243;49.814;8.652;2022-12-24T04:17:38;99813.69;;;27.84;32.28
51178;BME280;37243;49.814;8.652;2022-12-24T04:20:08;99814.50;;;27.84;32.61
51178;BME280;37243;49.814;8.652;2022-12-24T04:22:36;99822.75;;;27.84;32.88
51178;BME280;37243;49.814;8.652;2022-12-24T04:25:09;99822.41;;;27.86;32.49
51178;BME280;37243;49.814;8.652;2022-12-24T04:27:37;99827.09;;;27.85;32.47
51178;BME280;37243;49.814;8.652;2022-12-24T04:30:07;99827.91;;;27.86;32.66
51178;BME280;37243;49.814;8.652;2022-12-24T04:32:36;99837.78;;;27.87;32.62
51178;BME280;37243;49.814;8.652;2022-12-24T04:35:05;99848.81;;;27.87;32.20
51178;BME280;37243;49.814;8.652;2022-12-24T04:37:33;99851.22;;;27.88;32.57
51178;BME280;37243;49.814;8.652;2022-12-24T04:40:02;99841.81;;;27.89;33.05
51178;BME280;37243;49.814;8.652;2022-12-24T04:42:33;99844.56;;;27.89;33.03
51178;BME280;37243;49.814;8.652;2022-12-24T04:45:01;99846.94;;;27.91;33.02
51178;BME280;37243;49.814;8.652;2022-12-24T04:47:29;99853.28;;;27.91;32.78
51178;BME280;37243;49.814;8.652;2022-12-24T04:49:58;99843.06;;;27.92;32.98
51178;BME280;37243;49.814;8.652;2022-12-24T04:52:26;99838.69;;;27.91;32.23
51178;BME280;37243;49.814;8.652;2022-12-24T04:54:54;99836.72;;;27.91;32.27
51178;BME280;37243;49.814;8.652;2022-12-24T04:57:23;99852.94;;;27.93;32.44
51178;BME280;37243;49.814;8.652;2022-12-24T04:59:54;99851.31;;;27.92;33.00
51178;BME280;37243;49.814;8.652;2022-12-24T05:02:22;99846.63;;;27.92;32.47
51178;BME280;37243;49.814;8.652;2022-12-24T05:04:50;99835.59;;;27.92;32.86
51178;BME280;37243;49.814;8.652;2022-12-24T05:07:19;99842.25;;;27.91;33.02
51178;BME280;37243;49.814;8.652;2022-12-24T05:09:47;99846.63;;;27.92;32.60
51178;BME280;37243;49.814;8.652;2022-12-24T05:12:15;99851.31;;;27.92;33.01
51178;BME280;37243;49.814;8.652;2022-12-24T05:14:44;99856.41;;;27.90;33.05
51178;BME280;37243;49.814;8.652;2022-12-24T05:17:15;99854.44;;;27.90;32.54
51178;BME280;37243;49.814;8.652;2022-12-24T05:19:43;99853.63;;;27.90;32.52
51178;BME280;37243;49.814;8.652;2022-12-24T05:22:11;99852.81;;;27.89;32.80
51178;BME280;37243;49.814;8.652;2022-12-24T05:24:52;99857.53;;;27.89;33.08
51178;BME280;37243;49.814;8.652;2022-12-24T05:27:33;99863.84;;;27.89;32.88
51178;BME280;37243;49.814;8.652;2022-12-24T05:30:01;99870.19;;;27.90;32.92
51178;BME280;37243;49.814;8.652;2022-12-24T05:32:32;99870.19;;;27.90;33.08
51178;BME280;37243;49.814;8.652;2022-12-24T05:35:00;99871.75;;;27.91;32.46
51178;BME280;37243;49.814;8.652;2022-12-24T05:37:29;99861.91;;;27.90;32.71
51178;BME280;37243;49.814;8.652;2022-12-24T05:39:57;99863.50;;;27.91;32.31
51178;BME280;37243;49.814;8.652;2022-12-24T05:42:25;99862.72;;;27.90;32.68
51178;BME280;37243;49.814;8.652;2022-12-24T05:44:53;99879.25;;;27.90;32.34
51178;BME280;37243;49.814;8.652;2022-12-24T05:47:22;99887.88;;;27.89;32.63
51178;BME280;37243;49.814;8.652;2022-12-24T05:49:53;99878.44;;;27.90;32.99
51178;BME280;37243;49.814;8.652;2022-12-24T05:52:21;99881.22;;;27.90;32.85
51178;BME280;37243;49.814;8.652;2022-12-24T05:54:49;99890.63;;;27.89;33.11
51178;BME280;37243;49.814;8.652;2022-12-24T05:57:18;99900.50;;;27.90;32.77
51178;BME280;37243;49.814;8.652;2022-12-24T05:59:46;99881.22;;;27.90;32.39
51178;BME280;37243;49.814;8.652;2022-12-24T06:02:16;99892.56;;;27.88;32.83
51178;BME280;37243;49.814;8.652;2022-12-24T06:04:44;99893.38;;;27.89;33.12
51178;BME280;37243;49.814;8.652;2022-12-24T06:07:15;99901.19;;;27.87;32.96
51178;BME280;37243;49.814;8.652;2022-12-24T06:09:43;99886.59;;;27.86;33.18
51178;BME280;37243;49.814;8.652;2022-12-24T06:12:11;99900.06;;;27.88;33.07
51178;BME280;37243;49.814;8.652;2022-12-24T06:14:40;99891.31;;;27.86;32.68
51178;BME280;37243;49.814;8.652;2022-12-24T06:17:08;99894.06;;;27.86;33.05
51178;BME280;37243;49.814;8.652;2022-12-24T06:19:36;99896.81;;;27.86;32.69
51178;BME280;37243;49.814;8.652;2022-12-24T06:22:04;99906.72;;;27.87;32.97
51178;BME280;37243;49.814;8.652;2022-12-24T06:24:35;99903.97;;;27.87;33.00
51178;BME280;37243;49.814;8.652;2022-12-24T06:27:03;99913.38;;;27.86;32.43
51178;BME280;37243;49.814;8.652;2022-12-24T06:29:32;99908.66;;;27.86;32.90
51178;BME280;37243;49.814;8.652;2022-12-24T06:32:00;99907.03;;;27.85;32.58
51178;BME280;37243;49.814;8.652;2022-12-24T06:34:28;99910.16;;;27.84;32.50
51178;BME280;37243;49.814;8.652;2022-12-24T06:36:56;99910.97;;;27.84;33.09
51178;BME280;37243;49.814;8.652;2022-12-24T06:39:25;99910.63;;;27.86;33.14
51178;BME280;37243;49.814;8.652;2022-12-24T06:41:56;99918.88;;;27.86;32.92
51178;BME280;37243;49.814;8.652;2022-12-24T06:44:24;99916.50;;;27.84;32.90
51178;BME280;37243;49.814;8.652;2022-12-24T06:46:52;99918.06;;;27.85;32.63
51178;BME280;37243;49.814;8.652;2022-12-24T06:49:21;99905.91;;;27.86;32.62
51178;BME280;37243;49.814;8.652;2022-12-24T06:51:49;99911.78;;;27.85;32.81
51178;BME280;37243;49.814;8.652;2022-12-24T06:54:17;99917.28;;;27.85;32.87
51178;BME280;37243;49.814;8.652;2022-12-24T06:56:48;99928.31;;;27.85;32.50
51178;BME280;37243;49.814;8.652;2022-12-24T06:59:19;99929.91;;;27.86;32.97
51178;BME280;37243;49.814;8.652;2022-12-24T07:01:47;99936.59;;;27.85;32.89
51178;BME280;37243;49.814;8.652;2022-12-24T07:04:16;99940.94;;;27.86;32.86
51178;BME280;37243;49.814;8.652;2022-12-24T07:06:44;99940.94;;;27.86;32.98
51178;BME280;37243;49.814;8.652;2022-12-24T07:09:12;99941.75;;;27.86;32.66
51178;BME280;37243;49.814;8.652;2022-12-24T07:11:41;99950.81;;;27.87;32.53
51178;BME280;37243;49.814;8.652;2022-12-24T07:14:09;99951.97;;;27.86;32.90
51178;BME280;37243;49.814;8.652;2022-12-24T07:16:40;99945.31;;;27.87;33.24
51178;BME280;37243;49.814;8.652;2022-12-24T07:19:08;99942.88;;;27.85;32.64
51178;BME280;37243;49.814;8.652;2022-12-24T07:21:36;99942.56;;;27.87;32.51
51178;BME280;37243;49.814;8.652;2022-12-24T07:24:05;99942.56;;;27.87;32.83
51178;BME280;37243;49.814;8.652;2022-12-24T07:26:34;99950.38;;;27.85;33.13
51178;BME280;37243;49.814;8.652;2022-12-24T07:29:02;99966.56;;;27.86;32.95
51178;BME280;37243;49.814;8.652;2022-12-24T07:31:30;99963.00;;;27.86;32.95
51178;BME280;37243;49.814;8.652;2022-12-24T07:34:01;99971.25;;;27.86;33.25
51178;BME280;37243;49.814;8.652;2022-12-24T07:36:29;99976.78;;;27.86;32.46
51178;BME280;37243;49.814;8.652;2022-12-24T07:38:58;99974.00;;;27.86;32.96
51178;BME280;37243;49.814;8.652;2022-12-24T07:41:26;99976.78;;;27.86;32.71
51178;BME280;37243;49.814;8.652;2022-12-24T07:43:54;99981.47;;;27.85;32.82
51178;BME280;37243;49.814;8.652;2022-12-24T07:46:23;99972.44;;;27.85;33.06
51178;BME280;37243;49.814;8.652;2022-12-24T07:48:52;99974.38;;;27.84;33.20
51178;BME280;37243;49.814;8.652;2022-12-24T07:51:23;99979.53;;;27.86;32.77
51178;BME280;37243;49.814;8.652;2022-12-24T07:53:51;99973.22;;;27.85;33.23
51178;BME280;37243;49.814;8.652;2022-12-24T07:56:19;99981.16;;;27.87;32.48
51178;BME280;37243;49.814;8.652;2022-12-24T07:58:49;99994.47;;;27.85;33.17
51178;BME280;37243;49.814;8.652;2022-12-24T08:01:18;99993.69;;;27.84;32.46
51178;BME280;37243;49.814;8.652;2022-12-24T08:03:46;100003.09;;;27.83;33.17
51178;BME280;37243;49.814;8.652;2022-12-24T08:06:15;100002.75;;;27.85;33.26
51178;BME280;37243;49.814;8.652;2022-12-24T08:08:46;100003.53;;;27.85;32.84
51178;BME280;37243;49.814;8.652;2022-12-24T08:11:14;100007.47;;;27.84;32.63
51178;BME280;37243;49.814;8.652;2022-12-24T08:13:43;100010.22;;;27.84;32.90
51178;BME280;37243;49.814;8.652;2022-12-24T08:16:11;100024.81;;;27.85;32.58
51178;BME280;37243;49.814;8.652;2022-12-24T08:18:40;100029.16;;;27.86;32.84
51178;BME280;37243;49.814;8.652;2022-12-24T08:21:08;100025.59;;;27.85;32.97
51178;BME280;37243;49.814;8.652;2022-12-24T08:23:37;100024.81;;;27.85;32.58
51178;BME280;37243;49.814;8.652;2022-12-24T08:26:09;100027.56;;;27.85;32.70
51178;BME280;37243;49.814;8.652;2022-12-24T08:28:37;100029.50;;;27.84;33.12
51178;BME280;37243;49.814;8.652;2022-12-24T08:31:06;100025.94;;;27.84;33.03
51178;BME280;37243;49.814;8.652;2022-12-24T08:33:37;100035.34;;;27.83;32.94
51178;BME280;37243;49.814;8.652;2022-12-24T08:36:06;100024.81;;;27.85;32.65
51178;BME280;37243;49.814;8.652;2022-12-24T08:38:34;100041.34;;;27.85;32.41
51178;BME280;37243;49.814;8.652;2022-12-24T08:41:02;100027.56;;;27.85;32.46
51178;BME280;37243;49.814;8.652;2022-12-24T08:43:34;100031.47;;;27.84;32.79
51178;BME280;37243;49.814;8.652;2022-12-24T08:46:03;100038.91;;;27.83;32.83
51178;BME280;37243;49.814;8.652;2022-12-24T08:48:32;100036.97;;;27.84;32.88
51178;BME280;37243;49.814;8.652;2022-12-24T08:51:05;100049.13;;;27.83;32.65
51178;BME280;37243;49.814;8.652;2022-12-24T08:53:34;100043.28;;;27.84;32.67
51178;BME280;37243;49.814;8.652;2022-12-24T08:56:04;100045.25;;;27.84;32.47
51178;BME280;37243;49.814;8.652;2022-12-24T08:58:36;100046.38;;;27.83;32.45
51178;BME280;37243;49.814;8.652;2022-12-24T09:01:10;100046.88;;;27.85;32.89
51178;BME280;37243;49.814;8.652;2022-12-24T09:03:38;100043.63;;;27.83;32.89
51178;BME280;37243;49.814;8.652;2022-12-24T09:06:08;100045.56;;;27.82;33.21
51178;BME280;37243;49.814;8.652;2022-12-24T09:08:37;100046.38;;;27.83;33.18
51178;BME280;37243;49.814;8.652;2022-12-24T09:11:07;100057.41;;;27.83;33.06
51178;BME280;37243;49.814;8.652;2022-12-24T09:13:38;100063.41;;;27.85;32.79
51178;BME280;37243;49.814;8.652;2022-12-24T09:16:07;100059.84;;;27.84;33.05
51178;BME280;37243;49.814;8.652;2022-12-24T09:18:36;100068.09;;;27.84;32.47
51178;BME280;37243;49.814;8.652;2022-12-24T09:21:06;100071.69;;;27.85;32.61
51178;BME280;37243;49.814;8.652;2022-12-24T09:23:37;100075.56;;;27.84;32.50
51178;BME280;37243;49.814;8.652;2022-12-24T09:26:05;100075.56;;;27.84;32.62
51178;BME280;37243;49.814;8.652;2022-12-24T09:28:34;100072.81;;;27.84;33.17
51178;BME280;37243;49.814;8.652;2022-12-24T09:31:05;100075.56;;;27.84;32.58
51178;BME280;37243;49.814;8.652;2022-12-24T09:33:36;100086.25;;;27.85;32.49
51178;BME280;37243;49.814;8.652;2022-12-24T09:36:05;100088.22;;;27.85;33.18
51178;BME280;37243;49.814;8.652;2022-12-24T09:38:35;100100.84;;;27.86;32.90
51178;BME280;37243;49.814;8.652;2022-12-24T09:41:12;100093.72;;;27.85;32.93
51178;BME280;37243;49.814;8.652;2022-12-24T09:43:45;100107.50;;;27.85;32.74
51178;BME280;37243;49.814;8.652;2022-12-24T09:46:21;100108.66;;;27.84;32.41
51178;BME280;37243;49.814;8.652;2022-12-24T09:48:54;100115.78;;;27.85;32.82
51178;BME280;37243;49.814;8.652;2022-12-24T09:51:27;100120.50;;;27.84;32.96
51178;BME280;37243;49.814;8.652;2022-12-24T09:53:59;100122.44;;;27.84;32.92
51178;BME280;37243;49.814;8.652;2022-12-24T09:56:37;100120.81;;;27.83;32.75
51178;BME280;37243;49.814;8.652;2022-12-24T09:59:10;100116.91;;;27.84;32.69
51178;BME280;37243;49.814;8.652;2022-12-24T10:01:43;100128.28;;;27.82;32.62
51178;BME280;37243;49.814;8.652;2022-12-24T10:04:13;100130.72;;;27.84;32.70
51178;BME280;37243;49.814;8.652;2022-12-24T10:06:48;100131.03;;;27.82;33.14
51178;BME280;37243;49.814;8.652;2022-12-24T10:09:27;100142.88;;;27.83;32.92
51178;BME280;37243;49.814;8.652;2022-12-24T10:12:03;100140.13;;;27.83;33.10
51178;BME280;37243;49.814;8.652;2022-12-24T10:14:44;100147.56;;;27.82;32.37
51178;BME280;37243;49.814;8.652;2022-12-24T10:17:41;100152.31;;;27.82;32.67
51178;BME280;37243;49.814;8.652;2022-12-24T10:20:30;100148.75;;;27.81;32.76
51178;BME280;37243;49.814;8.652;2022-12-24T10:23:05;100152.31;;;27.82;32.58
51178;BME280;37243;49.814;8.652;2022-12-24T10:25:39;100144.03;;;27.82;32.55
51178;BME280;37243;49.814;8.652;2022-12-24T10:28:14;100149.56;;;27.82;32.52
51178;BME280;37243;49.814;8.652;2022-12-24T10:30:47;100142.88;;;27.83;32.72
51178;BME280;37243;49.814;8.652;2022-12-24T10:33:21;100131.38;;;27.81;33.07
51178;BME280;37243;49.814;8.652;2022-12-24T10:35:55;100129.44;;;27.81;32.68
51178;BME280;37243;49.814;8.652;2022-12-24T10:38:25;100120.72;;;27.79;33.11
51178;BME280;37243;49.814;8.652;2022-12-24T10:40:55;100113.22;;;27.80;32.74
51178;BME280;37243;49.814;8.652;2022-12-24T10:43:28;100128.63;;;27.81;32.85
51178;BME280;37243;49.814;8.652;2022-12-24T10:46:00;100134.16;;;27.81;32.56
51178;BME280;37243;49.814;8.652;2022-12-24T10:48:37;100128.63;;;27.81;32.52
51178;BME280;37243;49.814;8.652;2022-12-24T10:51:12;100142.41;;;27.81;32.79
51178;BME280;37243;49.814;8.652;2022-12-24T10:53:42;100146.78;;;27.82;33.12
51178;BME280;37243;49.814;8.652;2022-12-24T10:56:15;100139.66;;;27.81;32.59
51178;BME280;37243;49.814;8.652;2022-12-24T10:58:44;100146.78;;;27.82;32.47
51178;BME280;37243;49.814;8.652;2022-12-24T11:01:13;100141.28;;;27.82;32.51
51178;BME280;37243;49.814;8.652;2022-12-24T11:03:44;100144.03;;;27.82;33.08
51178;BME280;37243;49.814;8.652;2022-12-24T11:06:14;100144.03;;;27.82;33.27
51178;BME280;37243;49.814;8.652;2022-12-24T11:08:45;100155.06;;;27.82;32.52
51178;BME280;37243;49.814;8.652;2022-12-24T11:11:15;100147.94;;;27.81;32.85
51178;BME280;37243;49.814;8.652;2022-12-24T11:13:45;100155.06;;;27.82;32.51
51178;BME280;37243;49.814;8.652;2022-12-24T11:16:22;100152.63;;;27.80;32.61
51178;BME280;37243;49.814;8.652;2022-12-24T11:19:00;100163.34;;;27.82;32.75
51178;BME280;37243;49.814;8.652;2022-12-24T11:21:32;100159.75;;;27.81;33.20
51178;BME280;37243;49.814;8.652;2022-12-24T11:24:06;100153.44;;;27.81;32.71
51178;BME280;37243;49.814;8.652;2022-12-24T11:26:35;100158.97;;;27.81;33.28
51178;BME280;37243;49.814;8.652;2022-12-24T11:29:10;100154.25;;;27.81;32.63
51178;BME280;37243;49.814;8.652;2022-12-24T11:31:40;100149.56;;;27.82;33.29
51178;BME280;37243;49.814;8.652;2022-12-24T11:34:23;100145.16;;;27.81;32.64
51178;BME280;37243;49.814;8.652;2022-12-24T11:36:53;100147.94;;;27.81;32.95
51178;BME280;37243;49.814;8.652;2022-12-24T11:39:24;100149.56;;;27.82;32.96
51178;BME280;37243;49.814;8.652;2022-12-24T11:41:53;100138.53;;;27.82;32.65
51178;BME280;37243;49.814;8.652;2022-12-24T11:44:24;100139.31;;;27.82;32.54
51178;BME280;37243;49.814;8.652;2022-12-24T11:46:55;100144.03;;;27.82;32.88
51178;BME280;37243;49.814;8.652;2022-12-24T11:49:28;100140.47;;;27.81;32.89
51178;BME280;37243;49.814;8.652;2022-12-24T11:52:15;100140.47;;;27.81;32.92
51178;BME280;37243;49.814;8.652;2022-12-24T11:54:51;100138.53;;;27.82;32.81
51178;BME280;37243;49.814;8.652;2022-12-24T11:57:33;100147.94;;;27.81;32.73
51178;BME280;37243;49.814;8.652;2022-12-24T12:00:09;100136.91;;;27.81;32.82
51178;BME280;37243;49.814;8.652;2022-12-24T12:02:38;100142.41;;;27.81;32.48
51178;BME280;37243;49.814;8.652;2022-12-24T12:05:15;100134.97;;;27.81;33.18
51178;BME280;37243;49.814;8.652;2022-12-24T12:07:46;100139.66;;;27.81;32.85
51178;BME280;37243;49.814;8.652;2022-12-24T12:10:20;100144.03;;;27.82;32.90
51178;BME280;37243;49.814;8.652;2022-12-24T12:12:59;100144.81;;;27.82;32.85
51178;BME280;37243;49.814;8.652;2022-12-24T12:15:32;100147.94;;;27.81;32.93
51178;BME280;37243;49.814;8.652;2022-12-24T12:18:05;100145.16;;;27.81;33.20
51178;BME280;37243;49.814;8.652;2022-12-24T12:20:38;100145.16;;;27.81;33.10
51178;BME280;37243;49.814;8.652;2022-12-24T12:23:13;100142.41;;;27.81;33.03
51178;BME280;37243;49.814;8.652;2022-12-24T12:25:46;100135.28;;;27.80;32.91
51178;BME280;37243;49.814;8.652;2022-12-24T12:28:20;100137.72;;;27.81;32.53
51178;BME280;37243;49.814;8.652;2022-12-24T12:30:58;100145.97;;;27.81;32.71
51178;BME280;37243;49.814;8.652;2022-12-24T12:33:32;100144.03;;;27.82;32.86
51178;BME280;37243;49.814;8.652;2022-12-24T12:36:09;100144.34;;;27.80;32.90
51178;BME280;37243;49.814;8.652;2022-12-24T12:38:39;100149.88;;;27.80;32.49
51178;BME280;37243;49.814;8.652;2022-12-24T12:41:25;100156.19;;;27.81;32.74
51178;BME280;37243;49.814;8.652;2022-12-24T12:44:09;100147.13;;;27.80;32.89
51178;BME280;37243;49.814;8.652;2022-12-24T12:46:52;100161.72;;;27.81;32.99
51178;BME280;37243;49.814;8.652;2022-12-24T12:49:32;100152.31;;;27.82;32.96
51178;BME280;37243;49.814;8.652;2022-12-24T12:52:13;100160.56;;;27.82;33.19
51178;BME280;37243;49.814;8.652;2022-12-24T12:54:58;100156.19;;;27.81;32.74
51178;BME280;37243;49.814;8.652;2022-12-24T12:57:33;100168.03;;;27.81;33.26
51178;BME280;37243;49.814;8.652;2022-12-24T13:00:06;100168.34;;;27.80;33.05
51178;BME280;37243;49.814;8.652;2022-12-24T13:02:52;100169.97;;;27.81;33.00
51178;BME280;37243;49.814;8.652;2022-12-24T13:05:44;100159.31;;;27.79;33.37
51178;BME280;37243;49.814;8.652;2022-12-24T13:08:55;100168.34;;;27.80;33.13
51178;BME280;37243;49.814;8.652;2022-12-24T13:11:36;100167.22;;;27.81;32.82
51178;BME280;37243;49.814;8.652;2022-12-24T13:14:31;100173.88;;;27.80;33.41
51178;BME280;37243;49.814;8.652;2022-12-24T13:17:36;100169.97;;;27.81;33.58
51178;BME280;37243;49.814;8.652;2022-12-24T13:20:24;100179.38;;;27.80;32.91